Moscow, Russia

9:03 PM MSK on August 30, 2014 (GMT +0400)
Dolgoprudnyy | Change Station
CLOSE
Current Station
Personal Weather Station
Location: Moscow, MOSCOW
Elevation: 614 ft
Nearby Weather Stations

Elev 614 ft 55.92 °N, 37.53 °E | Updated 2 seconds ago

Scattered Clouds
Scattered Clouds
52.3 °F
Feels Like 52.3 °F
N
0.5
Wind Variable Wind from NE
Gusts 1.3 mph

Today
High -- | Low -- °F
--% Chance of Precip.
Yesterday
High -- | Low -- °F
Precip. -- in
6:29 AM 8:29 PM
Waxing Crescent, 23% visible
Pressure 29.95 in
Visibility 6.2 miles
Clouds Few 5000 ft
Few 10000 ft
Scattered Clouds 20000 ft
Dew Point 48 °F
Humidity 86%
Rainfall 0.00 in
Snow Depth Not available.
UV 0 out of 12
Pollen Not available.
Air Quality Not available.
Flu Activity Not available.
METAR UUEE 301630Z 27004MPS 9999 FEW050CB FEW100 SCT200 12/10 Q1014 NOSIG

More Conditions Fewer Conditions

Pressure 29.95 in
Visibility 6.2 miles
Clouds Few 5000 ft
Few 10000 ft
Scattered Clouds 20000 ft
Dew Point 48 °F
Humidity 86%
Rainfall 0.00 in
Snow Depth Not available.
UV 0 out of 12
Pollen Not available.
Air Quality Not available.
Flu Activity Not available.
METAR UUEE 301630Z 27004MPS 9999 FEW050CB FEW100 SCT200 12/10 Q1014 NOSIG

More Conditions Fewer Conditions

10-Day Weather Forecast

Almanac

Astronomy

Aug. 30, 2014 Rise Set
Actual Time 6:29 AM MSK 8:29 PM MSK
Civil Twilight 5:50 AM MSK 9:08 PM MSK
Nautical Twilight 4:59 AM MSK 9:58 PM MSK
Astronomical Twilight 4:00 AM MSK 10:57 PM MSK
Moon 11:50 AM MSK 9:53 PM MSK
Length of Visible Light 15h 18m
Length of Day
13h 59m
Tomorrow will be 4m 29s shorter.
Waxing Crescent, 23% of the Moon is Illuminated
Today
Waxing Crescent
Sep 2
First Quarter
Sep 8
Full
Sep 15
Last Quarter
Sep 24
New

Today's Extremes

Country Highs Country Lows

Community

WunderPhotos

Upload Photos

1,748,566 photos uploaded!

WunderBlogs® & News

Nearby

Snow Depth

Not available.

Earthquake Activity

City Distance Mag. Time & Date
No recent earthquake activity has been reported nearby.
Minimum magnitude displayed is 2.5.

Coastal Water Temperatures

Place Temperature
No Stations Reporting

Nearby Weather Stations